createdAt,value
2018-05-12T00:03:12.377Z,12.13
2018-05-12T00:08:26.663Z,8.90
2018-05-12T00:13:29.935Z,7.47
2018-05-12T00:18:33.170Z,8.43
2018-05-12T00:23:36.398Z,9.40
2018-05-12T00:28:38.866Z,9.53
2018-05-12T00:33:42.102Z,13.60
2018-05-12T00:38:44.560Z,8.43
2018-05-12T00:43:47.802Z,9.03
2018-05-12T00:48:50.262Z,10.87
2018-05-12T00:53:53.469Z,9.13
2018-05-12T00:58:56.680Z,8.00
2018-05-12T01:03:59.894Z,8.23
2018-05-12T01:09:03.112Z,10.30
2018-05-12T01:14:06.323Z,9.20
2018-05-12T01:19:08.779Z,7.83
2018-05-12T01:24:12.273Z,8.10
2018-05-12T01:29:14.864Z,9.10
2018-05-12T01:34:17.297Z,8.77
2018-05-12T01:39:20.543Z,12.30
2018-05-12T01:44:22.994Z,9.67
2018-05-12T01:49:25.534Z,9.03
2018-05-12T01:54:27.974Z,10.27
2018-05-12T01:59:31.185Z,9.63
2018-05-12T02:04:33.901Z,10.27
2018-05-12T02:09:38.468Z,9.57
2018-05-12T02:14:40.973Z,12.00
2018-05-12T02:19:56.629Z,13.17
2018-05-12T02:24:59.084Z,9.67
2018-05-12T02:30:01.535Z,10.97
2018-05-12T02:35:04.748Z,9.57
2018-05-12T02:40:08.070Z,8.63
2018-05-12T02:45:10.534Z,9.87
2018-05-12T02:50:12.981Z,10.37
2018-05-12T03:00:30.867Z,10.10
2018-05-12T03:05:33.306Z,12.30
2018-05-12T03:10:36.546Z,13.27
2018-05-12T03:15:39.002Z,9.70
2018-05-12T03:20:42.228Z,9.40
2018-05-12T03:25:45.442Z,9.97
2018-05-12T03:30:48.674Z,10.33
2018-05-12T03:35:51.110Z,9.80
2018-05-12T03:40:53.558Z,10.97
2018-05-12T03:45:56.009Z,10.80
2018-05-12T03:50:58.459Z,10.37
2018-05-12T03:56:00.949Z,12.67
2018-05-12T04:01:03.669Z,13.73
2018-05-12T04:06:18.018Z,12.53
2018-05-12T04:11:32.561Z,13.77
2018-05-12T04:16:35.090Z,15.13
2018-05-12T04:21:37.733Z,13.17
2018-05-12T04:26:40.449Z,10.80
2018-05-12T04:31:53.178Z,10.80
2018-05-12T04:36:55.618Z,11.73
2018-05-12T04:41:58.270Z,15.97
2018-05-12T04:47:01.499Z,12.13
2018-05-12T04:52:03.938Z,11.93
2018-05-12T04:57:07.678Z,11.70
2018-05-12T05:02:11.993Z,11.57
2018-05-12T05:07:14.456Z,12.13
2018-05-12T05:12:16.909Z,12.33
2018-05-12T05:17:20.157Z,12.13
2018-05-12T05:22:22.678Z,16.90
2018-05-12T05:27:25.129Z,13.63
2018-05-12T05:32:27.629Z,12.40
2018-05-12T05:37:30.077Z,14.47
2018-05-12T05:42:32.531Z,11.67
2018-05-12T05:47:35.000Z,12.40
2018-05-12T05:52:37.457Z,14.57
2018-05-12T05:57:39.920Z,13.77
2018-05-12T06:08:20.729Z,12.13
2018-05-12T06:13:23.286Z,14.37
2018-05-12T06:18:25.744Z,11.30
2018-05-12T06:23:29.403Z,12.23
2018-05-12T06:28:32.615Z,13.30
2018-05-12T06:33:35.974Z,14.23
2018-05-12T06:38:38.374Z,13.37
2018-05-12T06:43:40.834Z,12.50
2018-05-12T06:48:43.322Z,12.50
2018-05-12T06:53:45.767Z,12.43
2018-05-12T06:58:48.228Z,13.87
2018-05-12T07:03:50.716Z,12.90
2018-05-12T07:08:53.139Z,12.67
2018-05-12T07:14:08.173Z,11.67
2018-05-12T07:19:11.448Z,13.43
2018-05-12T07:24:13.898Z,12.80
2018-05-12T07:29:18.425Z,13.43
2018-05-12T07:34:21.602Z,14.23
2018-05-12T07:39:24.823Z,13.60
2018-05-12T07:44:28.042Z,12.83
2018-05-12T07:49:41.132Z,13.00
2018-05-12T07:54:43.698Z,13.03
2018-05-12T07:59:46.906Z,14.87
2018-05-12T08:04:49.412Z,13.23
2018-05-12T08:10:04.390Z,12.30
2018-05-12T08:15:07.221Z,12.17
2018-05-12T08:20:09.678Z,12.37
2018-05-12T08:25:12.139Z,12.03
2018-05-12T08:30:15.350Z,14.13
2018-05-12T08:35:21.912Z,13.60
2018-05-12T08:40:25.181Z,12.20
2018-05-12T08:45:28.371Z,12.17
2018-05-12T08:50:31.585Z,10.60
2018-05-12T08:55:34.035Z,12.07
2018-05-12T09:00:36.481Z,10.37
2018-05-12T09:05:39.018Z,10.93
2018-05-12T09:10:41.482Z,11.90
2018-05-12T09:15:43.937Z,11.10
2018-05-12T09:20:47.269Z,9.20
2018-05-12T09:25:51.376Z,9.03
2018-05-12T09:30:55.273Z,9.43
2018-05-12T09:35:57.797Z,11.00
2018-05-12T09:41:01.155Z,9.27
2018-05-12T09:46:03.610Z,11.53
2018-05-12T09:51:06.040Z,12.33
2018-05-12T09:56:08.487Z,7.83
2018-05-12T10:01:11.759Z,7.93
2018-05-12T10:06:15.070Z,13.43
2018-05-12T10:11:18.305Z,10.67
2018-05-12T10:16:20.835Z,8.30
2018-05-12T10:21:23.314Z,10.83
2018-05-12T10:26:40.556Z,12.87
2018-05-12T10:31:43.796Z,13.67
2018-05-12T10:36:46.248Z,10.77
2018-05-12T10:41:58.389Z,10.20
2018-05-12T10:47:00.860Z,11.33
2018-05-12T10:52:03.299Z,9.10
2018-05-12T10:57:05.747Z,9.40
2018-05-12T11:02:08.957Z,9.03
2018-05-12T11:07:12.175Z,10.70
2018-05-12T11:12:15.389Z,12.33
2018-05-12T11:17:18.056Z,13.80
2018-05-12T11:22:21.483Z,11.60
2018-05-12T11:27:24.863Z,15.37
2018-05-12T11:32:27.304Z,11.63
2018-05-12T11:37:30.510Z,16.43
2018-05-12T11:42:33.740Z,14.50
2018-05-12T11:47:36.318Z,11.77
2018-05-12T11:52:39.545Z,12.77
2018-05-12T11:57:41.987Z,11.23
2018-05-12T12:02:44.434Z,8.13
2018-05-12T12:07:48.030Z,8.90
2018-05-12T12:12:51.255Z,7.90
2018-05-12T12:23:20.390Z,9.30
2018-05-12T12:28:23.620Z,9.00
2018-05-12T12:33:39.301Z,9.20
2018-05-12T12:38:42.501Z,9.17
2018-05-12T12:43:45.717Z,8.03
2018-05-12T12:48:48.186Z,8.70
2018-05-12T12:53:50.625Z,7.47
2018-05-12T12:58:53.216Z,8.27
2018-05-12T13:03:55.683Z,7.63
2018-05-12T13:08:58.205Z,7.77
2018-05-12T13:14:00.650Z,7.83
2018-05-12T13:19:05.486Z,8.93
2018-05-12T13:24:08.537Z,12.43
2018-05-12T13:29:12.499Z,10.67
2018-05-12T13:34:14.985Z,9.30
2018-05-12T13:39:17.458Z,10.93
2018-05-12T13:44:26.549Z,10.90
2018-05-12T13:49:30.297Z,11.03
2018-05-12T13:54:32.798Z,9.90
2018-05-12T13:59:35.277Z,10.17
2018-05-12T14:04:37.745Z,11.00
2018-05-12T14:09:40.220Z,10.83
2018-05-12T14:14:43.471Z,11.93
2018-05-12T14:19:45.914Z,10.67
2018-05-12T14:24:48.369Z,10.77
2018-05-12T14:30:04.971Z,12.13
2018-05-12T14:35:07.438Z,11.67
2018-05-12T14:40:09.939Z,11.33
2018-05-12T14:45:12.377Z,12.40
2018-05-12T14:50:15.778Z,12.30
2018-05-12T14:55:18.229Z,11.73
2018-05-12T15:00:20.708Z,13.23
2018-05-12T15:05:23.146Z,12.87
2018-05-12T15:10:25.597Z,12.23
2018-05-12T15:15:28.146Z,12.03
2018-05-12T15:20:30.594Z,12.27
2018-05-12T15:25:33.205Z,11.47
2018-05-12T15:30:37.977Z,11.37
2018-05-12T15:35:40.434Z,10.27
2018-05-12T15:40:43.885Z,10.83
2018-05-12T15:45:46.321Z,11.10
2018-05-12T15:50:48.843Z,11.03
2018-05-12T15:55:51.539Z,10.87
2018-05-12T16:00:54.002Z,11.03
2018-05-12T16:05:56.449Z,10.87
2018-05-12T16:10:58.966Z,10.73
2018-05-12T16:16:02.358Z,10.77
2018-05-12T16:21:06.085Z,9.67
2018-05-12T16:26:08.496Z,10.23
2018-05-12T16:31:11.786Z,8.87
2018-05-12T16:36:15.113Z,8.70
2018-05-12T16:41:18.303Z,10.17
2018-05-12T16:46:20.919Z,12.17
2018-05-12T16:51:23.610Z,13.90
2018-05-12T16:56:26.197Z,13.10
2018-05-12T17:01:29.430Z,13.33
2018-05-12T17:06:32.018Z,12.47
2018-05-12T17:11:34.472Z,13.23
2018-05-12T17:16:36.939Z,13.30
2018-05-12T17:21:39.407Z,14.00
2018-05-12T17:26:42.623Z,12.87
2018-05-12T17:31:45.862Z,13.03
2018-05-12T17:36:48.464Z,13.63
2018-05-12T17:41:50.975Z,13.53
2018-05-12T17:46:55.735Z,14.47
2018-05-12T17:51:58.380Z,15.63
2018-05-12T17:57:00.833Z,16.77
2018-05-12T18:02:04.372Z,15.20
2018-05-12T18:07:07.598Z,16.27
2018-05-12T18:12:10.166Z,17.00
2018-05-12T18:17:12.809Z,17.67
2018-05-12T18:22:16.004Z,18.47
2018-05-12T18:27:18.452Z,19.80
2018-05-12T18:32:20.928Z,19.20
2018-05-12T18:37:23.412Z,21.20
2018-05-12T18:42:25.863Z,22.53
2018-05-12T18:47:49.478Z,22.73
2018-05-12T18:52:51.937Z,23.73
2018-05-12T19:03:25.244Z,27.73
2018-05-12T19:08:27.735Z,25.63
2018-05-12T19:13:30.140Z,25.90
2018-05-12T19:18:50.683Z,25.33
2018-05-12T19:23:53.134Z,24.83
2018-05-12T19:28:56.977Z,27.37
2018-05-12T19:33:59.441Z,26.47
2018-05-12T19:39:01.906Z,26.43
2018-05-12T19:44:04.365Z,25.40
2018-05-12T19:49:06.890Z,26.00
2018-05-12T19:54:09.341Z,25.80
2018-05-12T19:59:11.933Z,25.73
2018-05-12T20:04:14.394Z,25.30
2018-05-12T20:09:16.868Z,26.10
2018-05-12T20:14:20.142Z,24.80
2018-05-12T20:19:22.611Z,26.00
2018-05-12T20:24:28.710Z,26.30
2018-05-12T20:29:32.952Z,26.43
2018-05-12T20:34:35.489Z,26.60
2018-05-12T20:39:37.939Z,25.13
2018-05-12T20:44:41.567Z,28.27
2018-05-12T20:49:44.805Z,28.60
2018-05-12T20:54:47.323Z,26.20
2018-05-12T20:59:49.874Z,25.47
2018-05-12T21:04:53.136Z,24.90
2018-05-12T21:15:14.693Z,25.90
2018-05-12T21:20:17.161Z,24.13
2018-05-12T21:25:19.680Z,26.57
2018-05-12T21:30:22.130Z,26.23
2018-05-12T21:35:25.472Z,25.67
2018-05-12T21:40:28.492Z,25.47
2018-05-12T21:50:57.610Z,25.47
2018-05-12T21:56:00.839Z,26.53
2018-05-12T22:01:03.339Z,26.37
2018-05-12T22:06:06.731Z,25.20
2018-05-12T22:11:10.170Z,26.67
2018-05-12T22:16:12.662Z,29.33
2018-05-12T22:21:28.778Z,26.37
2018-05-12T22:26:31.237Z,29.27
2018-05-12T22:31:34.465Z,26.33
2018-05-12T22:36:36.933Z,26.77
2018-05-12T22:41:57.850Z,26.87
2018-05-12T22:47:00.335Z,26.57
2018-05-12T22:52:02.802Z,28.57
2018-05-12T22:57:05.252Z,28.80
2018-05-12T23:02:12.098Z,29.57
2018-05-12T23:07:14.573Z,29.80
2018-05-12T23:12:17.866Z,28.73
2018-05-12T23:17:21.223Z,29.63
2018-05-12T23:22:23.722Z,30.87
2018-05-12T23:27:28.143Z,30.73
2018-05-12T23:32:30.617Z,28.23
2018-05-12T23:37:52.564Z,28.37
2018-05-12T23:42:55.034Z,30.53
2018-05-12T23:47:57.607Z,29.60
2018-05-12T23:53:00.078Z,30.97
2018-05-12T23:58:02.570Z,30.43
